createdAt,value
2019-04-20T00:01:19.925Z,7.43
2019-04-20T00:03:48.447Z,7.57
2019-04-20T00:06:21.501Z,11.50
2019-04-20T00:08:59.937Z,9.30
2019-04-20T00:11:36.439Z,9.40
2019-04-20T00:14:07.072Z,8.70
2019-04-20T00:16:35.766Z,6.53
2019-04-20T00:19:09.309Z,7.43
2019-04-20T00:21:52.046Z,9.73
2019-04-20T00:24:35.918Z,12.07
2019-04-20T00:27:31.327Z,12.67
2019-04-20T00:30:03.346Z,13.13
2019-04-20T00:32:30.009Z,10.03
2019-04-20T00:34:52.014Z,11.17
2019-04-20T00:37:23.703Z,10.53
2019-04-20T00:39:56.494Z,7.00
2019-04-20T00:42:36.597Z,8.97
2019-04-20T00:45:12.035Z,8.50
2019-04-20T00:47:47.817Z,7.37
2019-04-20T00:50:29.932Z,9.77
2019-04-20T00:53:00.632Z,10.33
2019-04-20T00:55:20.978Z,9.67
2019-04-20T00:57:59.510Z,12.90
2019-04-20T01:00:41.046Z,13.93
2019-04-20T01:03:14.348Z,10.33
2019-04-20T01:06:05.356Z,9.23
2019-04-20T01:08:17.151Z,10.50
2019-04-20T01:10:51.452Z,8.23
2019-04-20T01:13:23.875Z,8.27
2019-04-20T01:16:03.295Z,7.73
2019-04-20T01:18:30.304Z,9.40
2019-04-20T01:21:06.793Z,10.77
2019-04-20T01:23:43.817Z,8.10
2019-04-20T01:26:14.468Z,8.53
2019-04-20T01:28:57.640Z,9.10
2019-04-20T01:31:27.289Z,10.60
2019-04-20T01:34:01.830Z,15.77
2019-04-20T01:36:42.988Z,6.73
2019-04-20T01:39:12.429Z,8.20
2019-04-20T01:41:32.960Z,10.23
2019-04-20T01:44:05.147Z,7.97
2019-04-20T01:46:39.152Z,8.13
2019-04-20T01:49:15.672Z,7.53
2019-04-20T01:51:52.464Z,8.53
2019-04-20T01:54:34.053Z,7.33
2019-04-20T01:57:04.659Z,9.77
2019-04-20T01:59:44.820Z,9.33
2019-04-20T02:02:19.557Z,7.73
2019-04-20T02:04:53.740Z,9.70
2019-04-20T02:07:33.575Z,11.03
2019-04-20T02:10:03.612Z,8.83
2019-04-20T02:12:37.275Z,13.67
2019-04-20T02:15:20.072Z,10.87
2019-04-20T02:17:53.728Z,6.40
2019-04-20T02:20:37.521Z,8.90
2019-04-20T02:23:06.274Z,6.80
2019-04-20T02:25:24.975Z,15.37
2019-04-20T02:28:14.673Z,8.07
2019-04-20T02:31:06.440Z,6.50
2019-04-20T02:33:58.006Z,15.73
2019-04-20T02:36:47.860Z,13.37
2019-04-20T02:41:51.429Z,8.17
2019-04-20T02:44:36.165Z,9.10
2019-04-20T02:47:13.989Z,9.03
2019-04-20T02:49:37.657Z,7.97
2019-04-20T02:52:12.402Z,14.20
2019-04-20T02:54:38.909Z,8.37
2019-04-20T02:57:33.489Z,10.37
2019-04-20T03:00:01.125Z,12.47
2019-04-20T03:02:13.025Z,8.80
2019-04-20T03:04:35.072Z,18.37
2019-04-20T03:07:15.245Z,13.83
2019-04-20T03:09:50.512Z,8.70
2019-04-20T03:12:33.397Z,17.40
2019-04-20T03:14:55.252Z,11.70
2019-04-20T03:17:39.065Z,16.17
2019-04-20T03:20:03.272Z,16.30
2019-04-20T03:23:05.189Z,9.37
2019-04-20T03:25:23.808Z,11.30
2019-04-20T03:27:51.665Z,9.97
2019-04-20T03:31:15.713Z,9.37
2019-04-20T03:35:41.823Z,11.97
2019-04-20T03:38:14.231Z,13.47
2019-04-20T03:40:40.159Z,8.60
2019-04-20T03:43:03.825Z,8.77
2019-04-20T03:45:44.582Z,9.83
2019-04-20T03:48:29.516Z,11.90
2019-04-20T03:51:02.094Z,13.30
2019-04-20T03:53:55.467Z,18.60
2019-04-20T03:56:46.348Z,12.53
2019-04-20T03:59:33.225Z,12.87
2019-04-20T04:02:22.191Z,16.30
2019-04-20T04:04:59.004Z,17.23
2019-04-20T04:07:24.853Z,19.33
2019-04-20T04:10:08.554Z,27.30
2019-04-20T04:13:07.266Z,21.17
2019-04-20T04:15:48.287Z,19.87
2019-04-20T04:18:26.074Z,12.93
2019-04-20T04:21:01.416Z,15.57
2019-04-20T04:23:44.757Z,17.90
2019-04-20T04:26:17.495Z,16.67
2019-04-20T04:28:48.934Z,19.03
2019-04-20T04:31:29.388Z,20.83
2019-04-20T04:34:06.222Z,14.83
2019-04-20T04:36:37.603Z,21.23
2019-04-20T04:39:15.257Z,17.47
2019-04-20T04:41:45.554Z,18.17
2019-04-20T04:44:12.347Z,20.23
2019-04-20T04:46:33.885Z,19.77
2019-04-20T04:49:18.059Z,16.43
2019-04-20T04:51:49.173Z,20.97
2019-04-20T04:54:24.686Z,20.03
2019-04-20T04:56:48.397Z,20.57
2019-04-20T04:59:21.425Z,18.47
2019-04-20T05:01:56.809Z,24.90
2019-04-20T05:05:05.209Z,25.40
2019-04-20T05:07:42.687Z,22.23
2019-04-20T05:10:01.260Z,22.13
2019-04-20T05:12:35.908Z,23.60
2019-04-20T05:15:15.989Z,21.07
2019-04-20T05:18:01.539Z,20.57
2019-04-20T05:20:47.533Z,23.90
2019-04-20T05:23:16.304Z,27.07
2019-04-20T05:26:03.522Z,20.60
2019-04-20T05:28:32.316Z,21.70
2019-04-20T05:30:59.205Z,23.27
2019-04-20T05:33:42.324Z,23.57
2019-04-20T05:36:18.924Z,27.23
2019-04-20T05:38:55.546Z,23.33
2019-04-20T05:41:21.855Z,24.60
2019-04-20T05:43:59.673Z,23.80
2019-04-20T05:46:38.045Z,25.37
2019-04-20T05:49:17.651Z,24.97
2019-04-20T05:51:47.760Z,22.70
2019-04-20T05:54:23.688Z,24.17
2019-04-20T05:56:56.279Z,24.53
2019-04-20T05:59:27.041Z,24.10
2019-04-20T06:02:03.632Z,21.87
2019-04-20T06:04:54.511Z,24.23
2019-04-20T06:07:15.546Z,24.37
2019-04-20T06:09:50.792Z,27.93
2019-04-20T06:12:20.038Z,28.00
2019-04-20T06:14:57.185Z,26.73
2019-04-20T06:17:49.402Z,28.47
2019-04-20T06:20:31.220Z,25.67
2019-04-20T06:23:11.844Z,23.37
2019-04-20T06:25:54.245Z,25.40
2019-04-20T06:28:14.902Z,23.37
2019-04-20T06:30:45.534Z,27.50
2019-04-20T06:39:50.649Z,24.10
2019-04-20T06:42:12.031Z,27.10
2019-04-20T06:44:53.623Z,20.97
2019-04-20T06:47:17.652Z,20.07
2019-04-20T06:50:01.277Z,25.43
2019-04-20T06:52:27.698Z,21.93
2019-04-20T06:55:05.573Z,20.83
2019-04-20T06:57:45.090Z,18.07
2019-04-20T07:00:18.051Z,20.90
2019-04-20T07:02:50.726Z,19.47
2019-04-20T07:05:26.106Z,17.53
2019-04-20T07:08:36.053Z,17.03
2019-04-20T07:10:38.038Z,14.13
2019-04-20T07:13:02.669Z,13.17
2019-04-20T07:15:36.571Z,12.93
2019-04-20T07:18:16.696Z,10.93
2019-04-20T07:21:00.599Z,11.60
2019-04-20T07:23:56.089Z,9.43
2019-04-20T07:26:21.051Z,11.40
2019-04-20T07:28:49.953Z,9.97
2019-04-20T07:31:15.256Z,12.00
2019-04-20T07:33:54.845Z,8.77
2019-04-20T07:36:24.408Z,10.23
2019-04-20T07:39:00.682Z,7.03
2019-04-20T07:41:42.912Z,7.00
2019-04-20T07:46:47.068Z,5.00
2019-04-20T07:49:15.760Z,7.43
2019-04-20T07:51:31.541Z,5.60
2019-04-20T07:54:24.716Z,5.90
2019-04-20T07:56:53.693Z,5.20
2019-04-20T07:59:17.823Z,8.20
2019-04-20T08:02:28.982Z,10.57
2019-04-20T08:04:47.569Z,7.27
2019-04-20T08:07:07.774Z,6.83
2019-04-20T08:09:47.841Z,5.50
2019-04-20T08:12:51.633Z,10.07
2019-04-20T08:15:30.061Z,6.73
2019-04-20T08:17:56.443Z,3.53
2019-04-20T08:20:29.917Z,8.60
2019-04-20T08:23:07.142Z,4.83
2019-04-20T08:25:33.125Z,3.97
2019-04-20T08:27:57.084Z,4.23
2019-04-20T08:31:06.582Z,4.00
2019-04-20T08:33:59.501Z,4.73
2019-04-20T08:36:27.405Z,3.93
2019-04-20T08:39:24.459Z,5.13
2019-04-20T08:41:24.918Z,4.47
2019-04-20T08:44:11.140Z,5.17
2019-04-20T08:46:47.219Z,5.80
2019-04-20T08:49:17.176Z,7.20
2019-04-20T08:51:49.785Z,4.27
2019-04-20T08:54:20.708Z,3.50
2019-04-20T08:56:42.413Z,4.10
2019-04-20T08:59:06.819Z,5.63
2019-04-20T09:01:40.520Z,4.43
2019-04-20T09:04:19.695Z,6.50
2019-04-20T09:07:01.738Z,4.53
2019-04-20T09:09:54.790Z,6.20
2019-04-20T09:12:11.881Z,4.87
2019-04-20T09:14:28.684Z,5.30
2019-04-20T09:17:08.106Z,4.73
2019-04-20T09:19:47.973Z,4.20
2019-04-20T09:22:40.960Z,3.93
2019-04-20T09:25:44.428Z,4.70
2019-04-20T09:28:08.418Z,4.47
2019-04-20T09:30:45.500Z,5.47
2019-04-20T09:33:44.031Z,6.43
2019-04-20T09:36:14.106Z,8.03
2019-04-20T09:39:06.149Z,8.23
2019-04-20T09:42:00.032Z,5.13
2019-04-20T09:44:25.650Z,5.40
2019-04-20T09:46:57.821Z,13.23
2019-04-20T09:49:40.298Z,8.13
2019-04-20T09:52:13.314Z,9.30
2019-04-20T09:54:52.837Z,9.97
2019-04-20T09:57:32.249Z,8.67
2019-04-20T10:00:01.732Z,6.77
2019-04-20T10:02:23.328Z,6.40
2019-04-20T10:04:51.213Z,5.77
2019-04-20T10:07:26.227Z,8.57
2019-04-20T10:09:57.889Z,6.33
2019-04-20T10:12:31.285Z,8.27
2019-04-20T10:15:12.381Z,12.17
2019-04-20T10:17:38.626Z,7.90
2019-04-20T10:20:19.433Z,5.67
2019-04-20T10:22:44.794Z,9.53
2019-04-20T10:25:18.212Z,6.43
2019-04-20T10:27:51.540Z,8.40
2019-04-20T10:30:23.722Z,6.40
2019-04-20T10:32:55.846Z,6.27
2019-04-20T10:35:29.669Z,10.37
2019-04-20T10:38:03.471Z,6.93
2019-04-20T10:40:46.383Z,9.67
2019-04-20T10:43:10.171Z,6.90
2019-04-20T10:45:42.680Z,7.03
2019-04-20T10:48:15.121Z,13.53
2019-04-20T10:50:47.750Z,5.83
2019-04-20T10:53:19.765Z,8.27
2019-04-20T10:55:51.774Z,10.07
2019-04-20T10:58:25.230Z,6.63
2019-04-20T11:00:57.686Z,7.83
2019-04-20T11:03:29.760Z,7.47
2019-04-20T11:06:02.785Z,8.50
2019-04-20T11:08:34.950Z,11.47
2019-04-20T11:11:14.922Z,8.57
2019-04-20T11:13:41.602Z,6.37
2019-04-20T11:16:14.741Z,7.50
2019-04-20T11:18:47.328Z,7.87
2019-04-20T11:21:19.665Z,5.03
2019-04-20T11:23:52.141Z,6.77
2019-04-20T11:26:24.417Z,6.10
2019-04-20T11:28:57.987Z,5.50
2019-04-20T11:31:37.329Z,12.43
2019-04-20T11:34:04.239Z,5.90
2019-04-20T11:36:37.120Z,11.37
2019-04-20T11:39:11.542Z,8.27
2019-04-20T11:41:43.762Z,5.70
2019-04-20T11:44:15.907Z,7.17
2019-04-20T11:46:48.340Z,5.43
2019-04-20T11:49:21.625Z,6.93
2019-04-20T11:51:55.348Z,5.23
2019-04-20T11:54:28.314Z,6.57
2019-04-20T11:57:01.600Z,7.17
2019-04-20T11:59:35.149Z,9.03
2019-04-20T12:02:21.481Z,4.93
2019-04-20T12:04:59.751Z,5.00
2019-04-20T12:07:24.772Z,5.23
2019-04-20T12:09:58.512Z,5.83
2019-04-20T12:12:40.075Z,4.60
2019-04-20T12:15:06.891Z,7.57
2019-04-20T12:17:39.768Z,6.63
2019-04-20T12:20:12.833Z,4.63
2019-04-20T12:22:46.199Z,7.23
2019-04-20T12:25:18.665Z,4.93
2019-04-20T12:27:54.036Z,8.73
2019-04-20T12:30:25.894Z,5.70
2019-04-20T12:33:01.937Z,6.23
2019-04-20T12:35:32.061Z,4.20
2019-04-20T12:38:05.220Z,5.23
2019-04-20T12:40:38.003Z,4.57
2019-04-20T12:43:11.092Z,7.73
2019-04-20T12:45:44.128Z,5.97
2019-04-20T12:48:17.519Z,7.77
2019-04-20T12:50:49.951Z,4.67
2019-04-20T12:53:22.351Z,6.60
2019-04-20T12:55:54.840Z,7.00
2019-04-20T12:58:28.442Z,6.07
2019-04-20T13:01:00.618Z,4.43
2019-04-20T13:03:32.870Z,7.63
2019-04-20T13:06:05.895Z,8.33
2019-04-20T13:08:43.603Z,5.20
2019-04-20T13:11:14.473Z,5.47
2019-04-20T13:13:54.470Z,4.93
2019-04-20T13:16:28.223Z,5.43
2019-04-20T13:19:03.382Z,6.63
2019-04-20T13:21:36.819Z,4.63
2019-04-20T13:24:09.324Z,5.23
2019-04-20T13:26:42.774Z,5.27
2019-04-20T13:29:15.033Z,11.57
2019-04-20T13:31:48.775Z,7.43
2019-04-20T13:34:22.185Z,6.17
2019-04-20T13:36:54.332Z,8.10
2019-04-20T13:39:26.864Z,6.27
2019-04-20T13:42:08.700Z,4.93
2019-04-20T13:44:32.722Z,6.20
2019-04-20T13:47:05.139Z,5.30
2019-04-20T13:49:37.252Z,5.63
2019-04-20T13:52:09.288Z,4.53
2019-04-20T13:54:42.082Z,5.37
2019-04-20T13:57:17.784Z,5.80
2019-04-20T14:00:00.196Z,5.90
2019-04-20T14:02:40.696Z,8.37
2019-04-20T14:05:12.961Z,7.30
2019-04-20T14:07:47.224Z,8.27
2019-04-20T14:10:19.651Z,7.53
2019-04-20T14:13:00.900Z,6.23
2019-04-20T14:15:26.931Z,8.03
2019-04-20T14:17:59.349Z,7.07
2019-04-20T14:20:31.969Z,5.00
2019-04-20T14:23:05.255Z,5.60
2019-04-20T14:25:51.088Z,5.93
2019-04-20T14:28:23.350Z,7.30
2019-04-20T14:30:56.085Z,10.47
2019-04-20T14:33:30.739Z,6.33
2019-04-20T14:36:03.244Z,6.53
2019-04-20T14:38:36.170Z,6.37
2019-04-20T14:41:08.612Z,6.53
2019-04-20T14:43:40.686Z,8.43
2019-04-20T14:46:12.747Z,5.83
2019-04-20T14:48:44.962Z,6.03
2019-04-20T14:51:17.359Z,6.67
2019-04-20T14:53:49.512Z,8.17
2019-04-20T14:56:21.591Z,6.10
2019-04-20T14:58:55.578Z,6.53
2019-04-20T15:01:38.708Z,5.77
2019-04-20T15:04:16.370Z,8.10
2019-04-20T15:06:44.730Z,5.23
2019-04-20T15:09:16.952Z,5.83
2019-04-20T15:11:48.947Z,6.17
2019-04-20T15:14:20.964Z,6.67
2019-04-20T15:16:52.967Z,7.23
2019-04-20T15:19:29.677Z,6.60
2019-04-20T15:22:07.409Z,12.07
2019-04-20T15:24:39.835Z,6.70
2019-04-20T15:27:12.248Z,8.73
2019-04-20T15:29:44.577Z,5.97
2019-04-20T15:32:16.755Z,8.00
2019-04-20T15:34:50.872Z,6.63
2019-04-20T15:37:23.409Z,6.90
2019-04-20T15:39:57.012Z,7.80
2019-04-20T15:42:29.581Z,8.47
2019-04-20T15:45:03.404Z,6.17
2019-04-20T15:47:36.148Z,3.53
2019-04-20T15:50:09.648Z,3.20
2019-04-20T15:52:45.635Z,5.57
2019-04-20T15:55:24.068Z,5.20
2019-04-20T15:57:50.435Z,4.27
2019-04-20T16:00:24.577Z,2.63
2019-04-20T16:02:59.107Z,4.23
2019-04-20T16:05:43.014Z,2.47
2019-04-20T16:08:30.242Z,2.40
2019-04-20T16:11:04.587Z,2.70
2019-04-20T16:13:40.321Z,4.47
2019-04-20T16:16:12.096Z,2.13
2019-04-20T16:18:45.237Z,5.20
2019-04-20T16:21:22.958Z,4.60
2019-04-20T16:24:00.987Z,3.43
2019-04-20T16:26:35.735Z,3.47
2019-04-20T16:29:11.543Z,3.50
2019-04-20T16:31:47.206Z,4.07
2019-04-20T16:34:19.246Z,4.60
2019-04-20T16:36:54.697Z,4.77
2019-04-20T16:39:25.718Z,6.40
2019-04-20T16:41:58.316Z,8.33
2019-04-20T16:44:31.401Z,3.13
2019-04-20T16:47:04.094Z,5.33
2019-04-20T16:49:37.097Z,4.83
2019-04-20T16:52:10.333Z,2.90
2019-04-20T16:54:43.756Z,5.60
2019-04-20T16:57:17.239Z,10.57
2019-04-20T16:59:54.083Z,3.80
2019-04-20T17:02:24.521Z,4.47
2019-04-20T17:04:58.895Z,6.23
2019-04-20T17:07:33.212Z,6.00
2019-04-20T17:10:09.654Z,5.33
2019-04-20T17:12:42.010Z,3.60
2019-04-20T17:15:15.894Z,4.33
2019-04-20T17:17:50.247Z,4.33
2019-04-20T17:20:24.909Z,7.77
2019-04-20T17:22:56.205Z,8.07
2019-04-20T17:25:28.490Z,4.43
2019-04-20T17:28:07.144Z,4.27
2019-04-20T17:31:00.899Z,4.70
2019-04-20T17:33:58.421Z,4.23
2019-04-20T17:36:25.168Z,5.40
2019-04-20T17:38:59.363Z,4.10
2019-04-20T17:41:52.941Z,5.87
2019-04-20T17:44:20.916Z,7.17
2019-04-20T17:46:50.379Z,4.53
2019-04-20T17:49:28.276Z,4.47
2019-04-20T17:52:05.114Z,4.03
2019-04-20T17:54:19.830Z,8.80
2019-04-20T17:56:52.515Z,7.57
2019-04-20T17:59:24.509Z,4.93
2019-04-20T18:02:20.268Z,6.47
2019-04-20T18:05:22.038Z,4.60
2019-04-20T18:07:52.323Z,5.93
2019-04-20T18:10:17.173Z,6.10
2019-04-20T18:12:42.371Z,5.10
2019-04-20T18:15:28.113Z,4.50
2019-04-20T18:18:04.861Z,6.83
2019-04-20T18:20:42.982Z,8.73
2019-04-20T18:23:16.378Z,10.27
2019-04-20T18:26:17.249Z,4.40
2019-04-20T18:28:40.037Z,7.47
2019-04-20T18:31:15.368Z,5.40
2019-04-20T18:33:48.587Z,6.43
2019-04-20T18:36:30.626Z,6.50
2019-04-20T18:39:00.642Z,6.53
2019-04-20T18:41:37.527Z,16.37
2019-04-20T18:44:02.877Z,9.33
2019-04-20T18:47:03.514Z,8.13
2019-04-20T18:49:24.046Z,5.50
2019-04-20T18:51:43.959Z,8.87
2019-04-20T18:54:22.028Z,7.53
2019-04-20T18:56:52.609Z,7.13
2019-04-20T18:59:35.440Z,7.62
2019-04-20T19:01:59.260Z,6.60
2019-04-20T19:04:33.110Z,10.10
2019-04-20T19:07:06.223Z,6.83
2019-04-20T19:09:39.485Z,7.13
2019-04-20T19:12:14.594Z,10.63
2019-04-20T19:15:27.923Z,11.73
2019-04-20T19:18:00.885Z,6.87
2019-04-20T19:20:24.772Z,8.87
2019-04-20T19:22:55.947Z,9.53
2019-04-20T19:25:31.634Z,10.60
2019-04-20T19:28:04.696Z,7.30
2019-04-20T19:30:46.147Z,7.13
2019-04-20T19:33:28.667Z,8.23
2019-04-20T19:35:53.013Z,7.23
2019-04-20T19:38:22.621Z,9.67
2019-04-20T19:41:01.959Z,10.80
2019-04-20T19:43:33.781Z,13.60
2019-04-20T19:48:46.165Z,10.07
2019-04-20T19:51:31.020Z,10.70
2019-04-20T19:54:02.764Z,11.23
2019-04-20T19:56:32.385Z,16.23
2019-04-20T19:59:03.014Z,10.80
2019-04-20T20:01:24.002Z,11.77
2019-04-20T20:04:02.176Z,15.80
2019-04-20T20:06:40.076Z,15.03
2019-04-20T20:09:09.499Z,20.63
2019-04-20T20:11:42.979Z,16.37
2019-04-20T20:14:17.948Z,13.97
2019-04-20T20:17:02.728Z,14.50
2019-04-20T20:19:38.535Z,28.50
2019-04-20T20:22:09.227Z,15.23
2019-04-20T20:24:31.382Z,16.83
2019-04-20T20:27:07.610Z,16.23
2019-04-20T20:29:46.660Z,15.83
2019-04-20T20:32:21.443Z,19.67
2019-04-20T20:34:56.150Z,17.27
2019-04-20T20:37:35.872Z,15.93
2019-04-20T20:40:08.943Z,21.53
2019-04-20T20:42:47.345Z,22.33
2019-04-20T20:45:19.033Z,16.77
2019-04-20T20:47:55.348Z,19.33
2019-04-20T20:50:33.586Z,17.00
2019-04-20T20:52:58.672Z,16.87
2019-04-20T20:55:29.476Z,15.13
2019-04-20T20:57:59.268Z,16.37
2019-04-20T21:00:41.896Z,15.67
2019-04-20T21:03:05.485Z,17.27
2019-04-20T21:05:37.427Z,16.10
2019-04-20T21:08:11.125Z,20.63
2019-04-20T21:10:45.815Z,17.13
2019-04-20T21:13:19.185Z,17.73
2019-04-20T21:16:00.217Z,18.13
2019-04-20T21:18:43.662Z,20.03
2019-04-20T21:21:17.200Z,21.80
2019-04-20T21:23:45.480Z,20.83
2019-04-20T21:26:12.751Z,22.70
2019-04-20T21:28:42.253Z,18.37
2019-04-20T21:31:24.392Z,20.43
2019-04-20T21:33:53.590Z,25.13
2019-04-20T21:36:29.967Z,19.67
2019-04-20T21:39:01.523Z,18.13
2019-04-20T21:41:33.983Z,23.07
2019-04-20T21:44:13.008Z,20.67
2019-04-20T21:46:47.368Z,27.80
2019-04-20T21:49:31.150Z,27.67
2019-04-20T21:51:58.410Z,18.27
2019-04-20T21:54:25.461Z,19.27
2019-04-20T21:57:03.131Z,19.80
2019-04-20T21:59:38.684Z,19.23
2019-04-20T22:02:15.285Z,20.40
2019-04-20T22:04:41.038Z,19.17
2019-04-20T22:07:14.403Z,18.93
2019-04-20T22:09:52.783Z,15.13
2019-04-20T22:12:23.479Z,19.27
2019-04-20T22:15:02.885Z,21.77
2019-04-20T22:17:33.156Z,17.07
2019-04-20T22:20:19.148Z,21.87
2019-04-20T22:22:57.249Z,16.07
2019-04-20T22:25:36.257Z,23.00
2019-04-20T22:27:48.475Z,21.47
2019-04-20T22:30:22.078Z,18.87
2019-04-20T22:32:56.942Z,21.93
2019-04-20T22:35:31.177Z,25.47
2019-04-20T22:38:10.920Z,24.27
2019-04-20T22:40:44.702Z,22.13
2019-04-20T22:43:25.577Z,23.70
2019-04-20T22:45:53.920Z,22.80
2019-04-20T22:48:25.432Z,24.00
2019-04-20T22:51:15.264Z,19.10
2019-04-20T22:53:45.119Z,22.97
2019-04-20T22:56:25.652Z,20.73
2019-04-20T22:58:51.805Z,19.67
2019-04-20T23:01:27.056Z,19.93
2019-04-20T23:03:48.798Z,25.17
2019-04-20T23:06:25.284Z,24.97
2019-04-20T23:08:59.566Z,20.93
2019-04-20T23:11:31.872Z,22.37
2019-04-20T23:14:02.861Z,24.83
2019-04-20T23:16:43.209Z,21.03
2019-04-20T23:19:10.316Z,21.17
2019-04-20T23:21:48.736Z,19.00
2019-04-20T23:24:18.455Z,22.03
2019-04-20T23:26:50.926Z,18.77
2019-04-20T23:29:27.254Z,26.63
2019-04-20T23:32:04.075Z,25.30
2019-04-20T23:34:33.902Z,26.43
2019-04-20T23:37:08.756Z,25.50
2019-04-20T23:39:41.586Z,24.43
2019-04-20T23:42:16.118Z,25.87
2019-04-20T23:45:00.381Z,22.93
2019-04-20T23:47:47.888Z,23.07
2019-04-20T23:50:35.678Z,26.63
2019-04-20T23:53:10.424Z,23.07
2019-04-20T23:55:23.618Z,25.73
2019-04-20T23:57:59.528Z,23.73
